sensor_id;sensor_type;location;lat;lon;timestamp;temperature;humidity
31455;DHT22;18084;53.028;8.834;2023-05-07T06:26:55;9.70;99.90
31455;DHT22;18084;53.028;8.834;2023-05-07T06:29:25;9.70;99.90
31455;DHT22;18084;53.028;8.834;2023-05-07T06:31:55;9.70;99.90
31455;DHT22;18084;53.028;8.834;2023-05-07T06:34:21;9.80;99.90
31455;DHT22;18084;53.028;8.834;2023-05-07T06:36:47;9.70;99.90
31455;DHT22;18084;53.028;8.834;2023-05-07T06:39:12;9.80;99.90
31455;DHT22;18084;53.028;8.834;2023-05-07T06:41:38;9.80;99.90
31455;DHT22;18084;53.028;8.834;2023-05-07T06:44:04;9.80;99.90
31455;DHT22;18084;53.028;8.834;2023-05-07T06:46:30;9.80;99.90
31455;DHT22;18084;53.028;8.834;2023-05-07T06:48:56;9.90;99.90
31455;DHT22;18084;53.028;8.834;2023-05-07T06:51:22;9.90;99.90
31455;DHT22;18084;53.028;8.834;2023-05-07T06:53:47;9.90;99.90
31455;DHT22;18084;53.028;8.834;2023-05-07T06:56:13;10.00;99.90
31455;DHT22;18084;53.028;8.834;2023-05-07T06:58:38;10.10;99.90
31455;DHT22;18084;53.028;8.834;2023-05-07T07:01:04;10.10;99.90
31455;DHT22;18084;53.028;8.834;2023-05-07T07:03:30;10.10;99.90
31455;DHT22;18084;53.028;8.834;2023-05-07T07:05:55;10.10;99.90
31455;DHT22;18084;53.028;8.834;2023-05-07T07:08:22;10.20;99.90
31455;DHT22;18084;53.028;8.834;2023-05-07T07:10:47;10.20;99.90
31455;DHT22;18084;53.028;8.834;2023-05-07T07:13:13;10.30;99.90
31455;DHT22;18084;53.028;8.834;2023-05-07T07:15:39;10.30;99.90
31455;DHT22;18084;53.028;8.834;2023-05-07T07:18:05;10.30;99.90
31455;DHT22;18084;53.028;8.834;2023-05-07T07:20:31;10.40;99.90
31455;DHT22;18084;53.028;8.834;2023-05-07T07:22:58;10.30;99.90
31455;DHT22;18084;53.028;8.834;2023-05-07T07:25:24;10.40;99.90
31455;DHT22;18084;53.028;8.834;2023-05-07T07:27:50;10.40;99.90
31455;DHT22;18084;53.028;8.834;2023-05-07T07:30:16;10.40;99.90
31455;DHT22;18084;53.028;8.834;2023-05-07T07:32:41;10.40;99.90
31455;DHT22;18084;53.028;8.834;2023-05-07T07:35:08;10.40;99.90
31455;DHT22;18084;53.028;8.834;2023-05-07T07:37:34;10.50;99.90
31455;DHT22;18084;53.028;8.834;2023-05-07T07:39:59;10.60;99.90
31455;DHT22;18084;53.028;8.834;2023-05-07T07:42:25;10.60;99.90
31455;DHT22;18084;53.028;8.834;2023-05-07T07:44:50;10.60;99.90
31455;DHT22;18084;53.028;8.834;2023-05-07T07:47:24;10.60;99.90
31455;DHT22;18084;53.028;8.834;2023-05-07T07:49:53;10.60;99.90
31455;DHT22;18084;53.028;8.834;2023-05-07T07:52:23;10.70;99.90
31455;DHT22;18084;53.028;8.834;2023-05-07T07:54:48;10.80;99.90
31455;DHT22;18084;53.028;8.834;2023-05-07T07:57:14;10.80;99.90
31455;DHT22;18084;53.028;8.834;2023-05-07T07:59:39;11.00;99.90
31455;DHT22;18084;53.028;8.834;2023-05-07T08:02:05;11.10;99.90
31455;DHT22;18084;53.028;8.834;2023-05-07T08:04:31;11.20;99.90
31455;DHT22;18084;53.028;8.834;2023-05-07T08:06:58;11.20;99.90
31455;DHT22;18084;53.028;8.834;2023-05-07T08:09:23;11.30;99.90
31455;DHT22;18084;53.028;8.834;2023-05-07T08:11:49;11.40;99.90
31455;DHT22;18084;53.028;8.834;2023-05-07T08:14:15;11.50;99.90
31455;DHT22;18084;53.028;8.834;2023-05-07T08:16:41;11.60;99.90
31455;DHT22;18084;53.028;8.834;2023-05-07T08:19:07;11.50;99.90
31455;DHT22;18084;53.028;8.834;2023-05-07T08:21:32;11.50;99.90
31455;DHT22;18084;53.028;8.834;2023-05-07T08:23:58;11.50;99.90
31455;DHT22;18084;53.028;8.834;2023-05-07T08:26:23;11.60;99.90
31455;DHT22;18084;53.028;8.834;2023-05-07T08:28:49;11.60;99.90
31455;DHT22;18084;53.028;8.834;2023-05-07T08:31:14;11.60;99.90
31455;DHT22;18084;53.028;8.834;2023-05-07T08:33:40;11.60;99.90
31455;DHT22;18084;53.028;8.834;2023-05-07T08:36:05;11.70;99.10
31455;DHT22;18084;53.028;8.834;2023-05-07T08:38:31;11.70;99.90
31455;DHT22;18084;53.028;8.834;2023-05-07T08:40:56;11.70;99.90
31455;DHT22;18084;53.028;8.834;2023-05-07T08:43:22;11.80;99.90
31455;DHT22;18084;53.028;8.834;2023-05-07T08:45:49;11.90;99.80
31455;DHT22;18084;53.028;8.834;2023-05-07T08:48:21;11.90;99.90
31455;DHT22;18084;53.028;8.834;2023-05-07T08:50:49;11.90;98.40
31455;DHT22;18084;53.028;8.834;2023-05-07T08:53:16;11.90;98.30
31455;DHT22;18084;53.028;8.834;2023-05-07T08:55:43;12.00;96.50
31455;DHT22;18084;53.028;8.834;2023-05-07T08:58:10;12.10;97.40
31455;DHT22;18084;53.028;8.834;2023-05-07T09:00:36;12.20;97.50
31455;DHT22;18084;53.028;8.834;2023-05-07T09:03:01;12.20;97.70
31455;DHT22;18084;53.028;8.834;2023-05-07T09:05:28;12.10;97.30
31455;DHT22;18084;53.028;8.834;2023-05-07T09:07:53;12.10;98.10
31455;DHT22;18084;53.028;8.834;2023-05-07T09:10:21;12.00;98.10
31455;DHT22;18084;53.028;8.834;2023-05-07T09:12:46;12.00;96.30
31455;DHT22;18084;53.028;8.834;2023-05-07T09:15:15;12.10;97.30
31455;DHT22;18084;53.028;8.834;2023-05-07T09:17:41;12.10;95.90
31455;DHT22;18084;53.028;8.834;2023-05-07T09:20:08;12.00;95.90
31455;DHT22;18084;53.028;8.834;2023-05-07T09:22:33;12.00;96.90
31455;DHT22;18084;53.028;8.834;2023-05-07T09:25:01;12.10;98.40
31455;DHT22;18084;53.028;8.834;2023-05-07T09:27:26;12.10;96.90
31455;DHT22;18084;53.028;8.834;2023-05-07T09:29:52;12.10;97.40
31455;DHT22;18084;53.028;8.834;2023-05-07T09:32:18;12.20;98.00
31455;DHT22;18084;53.028;8.834;2023-05-07T09:34:44;12.40;96.10
31455;DHT22;18084;53.028;8.834;2023-05-07T09:37:10;12.50;95.40
31455;DHT22;18084;53.028;8.834;2023-05-07T09:39:47;12.60;94.10
31455;DHT22;18084;53.028;8.834;2023-05-07T09:42:13;12.60;93.50
31455;DHT22;18084;53.028;8.834;2023-05-07T09:44:43;12.70;93.70
31455;DHT22;18084;53.028;8.834;2023-05-07T09:47:10;12.70;29.10
31455;DHT22;18084;53.028;8.834;2023-05-07T09:49:39;12.70;3.00
31455;DHT22;18084;53.028;8.834;2023-05-07T09:52:06;12.70;1.00
31455;DHT22;18084;53.028;8.834;2023-05-07T09:54:35;12.90;1.00
31455;DHT22;18084;53.028;8.834;2023-05-07T09:57:04;12.90;1.00
31455;DHT22;18084;53.028;8.834;2023-05-07T09:59:32;12.90;1.00
31455;DHT22;18084;53.028;8.834;2023-05-07T10:02:00;13.00;1.00
31455;DHT22;18084;53.028;8.834;2023-05-07T10:04:27;12.80;1.00
31455;DHT22;18084;53.028;8.834;2023-05-07T10:06:52;12.80;1.00
31455;DHT22;18084;53.028;8.834;2023-05-07T10:09:19;12.70;1.00
31455;DHT22;18084;53.028;8.834;2023-05-07T10:11:49;12.80;10.80
31455;DHT22;18084;53.028;8.834;2023-05-07T10:14:14;12.90;11.70
31455;DHT22;18084;53.028;8.834;2023-05-07T10:16:40;12.90;1.00
31455;DHT22;18084;53.028;8.834;2023-05-07T10:19:07;13.00;1.00
31455;DHT22;18084;53.028;8.834;2023-05-07T10:21:36;12.90;1.00
31455;DHT22;18084;53.028;8.834;2023-05-07T10:24:09;12.70;1.00
31455;DHT22;18084;53.028;8.834;2023-05-07T10:26:41;12.80;1.00
31455;DHT22;18084;53.028;8.834;2023-05-07T10:29:15;12.90;1.00
31455;DHT22;18084;53.028;8.834;2023-05-07T10:34:29;13.00;1.00
31455;DHT22;18084;53.028;8.834;2023-05-07T10:36:58;13.10;1.00
31455;DHT22;18084;53.028;8.834;2023-05-07T10:39:23;13.10;1.00
31455;DHT22;18084;53.028;8.834;2023-05-07T10:41:49;13.10;1.00
31455;DHT22;18084;53.028;8.834;2023-05-07T10:44:24;13.30;1.00
31455;DHT22;18084;53.028;8.834;2023-05-07T10:47:10;13.20;1.00
31455;DHT22;18084;53.028;8.834;2023-05-07T10:54:39;13.70;1.00
31455;DHT22;18084;53.028;8.834;2023-05-07T10:59:49;14.20;99.90
31455;DHT22;18084;53.028;8.834;2023-05-07T11:02:15;14.30;99.90
31455;DHT22;18084;53.028;8.834;2023-05-07T11:04:41;14.30;99.90
31455;DHT22;18084;53.028;8.834;2023-05-07T11:10:04;14.60;99.90
31455;DHT22;18084;53.028;8.834;2023-05-07T11:15:13;15.10;99.90
31455;DHT22;18084;53.028;8.834;2023-05-07T11:17:58;15.20;99.90
31455;DHT22;18084;53.028;8.834;2023-05-07T11:20:50;15.60;99.90
31455;DHT22;18084;53.028;8.834;2023-05-07T11:26:00;15.90;99.90
31455;DHT22;18084;53.028;8.834;2023-05-07T11:28:28;16.10;99.90
31455;DHT22;18084;53.028;8.834;2023-05-07T11:30:54;16.00;1.00
31455;DHT22;18084;53.028;8.834;2023-05-07T11:33:19;15.60;99.90
31455;DHT22;18084;53.028;8.834;2023-05-07T11:35:45;15.70;99.90
31455;DHT22;18084;53.028;8.834;2023-05-07T11:38:12;15.70;99.90
31455;DHT22;18084;53.028;8.834;2023-05-07T11:40:57;15.50;99.90
31455;DHT22;18084;53.028;8.834;2023-05-07T11:43:24;15.20;99.90
31455;DHT22;18084;53.028;8.834;2023-05-07T11:45:49;15.20;99.90
31455;DHT22;18084;53.028;8.834;2023-05-07T11:48:16;15.00;99.90
31455;DHT22;18084;53.028;8.834;2023-05-07T11:51:03;15.10;99.90
31455;DHT22;18084;53.028;8.834;2023-05-07T11:53:37;15.20;99.90
31455;DHT22;18084;53.028;8.834;2023-05-07T11:56:11;15.10;99.90
31455;DHT22;18084;53.028;8.834;2023-05-07T11:58:37;15.00;99.90
31455;DHT22;18084;53.028;8.834;2023-05-07T12:01:02;15.00;99.90
31455;DHT22;18084;53.028;8.834;2023-05-07T12:03:28;15.20;99.90
31455;DHT22;18084;53.028;8.834;2023-05-07T12:05:55;15.20;99.90
31455;DHT22;18084;53.028;8.834;2023-05-07T12:08:21;15.20;99.90
31455;DHT22;18084;53.028;8.834;2023-05-07T12:10:48;15.20;99.90
31455;DHT22;18084;53.028;8.834;2023-05-07T12:13:18;15.20;99.90
31455;DHT22;18084;53.028;8.834;2023-05-07T12:15:44;15.20;99.90
31455;DHT22;18084;53.028;8.834;2023-05-07T12:18:13;15.30;99.90
31455;DHT22;18084;53.028;8.834;2023-05-07T12:20:40;15.20;99.90
31455;DHT22;18084;53.028;8.834;2023-05-07T12:23:05;15.20;99.90
31455;DHT22;18084;53.028;8.834;2023-05-07T12:25:34;15.30;99.90
31455;DHT22;18084;53.028;8.834;2023-05-07T12:28:04;15.20;99.90
31455;DHT22;18084;53.028;8.834;2023-05-07T12:30:42;15.10;99.90
31455;DHT22;18084;53.028;8.834;2023-05-07T12:33:08;15.10;99.90
31455;DHT22;18084;53.028;8.834;2023-05-07T12:35:37;15.20;99.90
31455;DHT22;18084;53.028;8.834;2023-05-07T12:38:15;15.30;99.90
31455;DHT22;18084;53.028;8.834;2023-05-07T12:40:44;15.40;99.90
31455;DHT22;18084;53.028;8.834;2023-05-07T12:43:29;15.40;99.90
31455;DHT22;18084;53.028;8.834;2023-05-07T12:46:01;15.60;99.90
31455;DHT22;18084;53.028;8.834;2023-05-07T12:48:27;15.70;99.90
31455;DHT22;18084;53.028;8.834;2023-05-07T12:50:53;15.70;99.90
31455;DHT22;18084;53.028;8.834;2023-05-07T12:53:21;15.70;99.90
31455;DHT22;18084;53.028;8.834;2023-05-07T12:55:53;15.60;99.90
31455;DHT22;18084;53.028;8.834;2023-05-07T12:58:21;15.60;82.20
31455;DHT22;18084;53.028;8.834;2023-05-07T13:00:49;15.60;52.20
31455;DHT22;18084;53.028;8.834;2023-05-07T13:03:27;16.40;94.80
31455;DHT22;18084;53.028;8.834;2023-05-07T13:05:58;15.70;99.90
31455;DHT22;18084;53.028;8.834;2023-05-07T13:08:35;15.70;1.00
31455;DHT22;18084;53.028;8.834;2023-05-07T13:11:02;15.90;1.00
31455;DHT22;18084;53.028;8.834;2023-05-07T13:13:33;16.00;99.90
31455;DHT22;18084;53.028;8.834;2023-05-07T13:15:59;15.90;1.00
31455;DHT22;18084;53.028;8.834;2023-05-07T13:18:25;16.10;99.90
31455;DHT22;18084;53.028;8.834;2023-05-07T13:20:51;17.50;99.90
31455;DHT22;18084;53.028;8.834;2023-05-07T13:23:17;17.40;99.90
31455;DHT22;18084;53.028;8.834;2023-05-07T13:25:45;16.90;99.90
31455;DHT22;18084;53.028;8.834;2023-05-07T13:28:14;16.90;99.90
31455;DHT22;18084;53.028;8.834;2023-05-07T13:30:39;17.60;1.00
31455;DHT22;18084;53.028;8.834;2023-05-07T13:33:06;17.30;99.90
31455;DHT22;18084;53.028;8.834;2023-05-07T13:36:10;17.60;13.00
31455;DHT22;18084;53.028;8.834;2023-05-07T13:39:29;17.20;99.90
31455;DHT22;18084;53.028;8.834;2023-05-07T13:42:05;17.20;99.90
31455;DHT22;18084;53.028;8.834;2023-05-07T13:44:34;17.30;8.10
31455;DHT22;18084;53.028;8.834;2023-05-07T13:47:02;17.30;99.90
31455;DHT22;18084;53.028;8.834;2023-05-07T13:49:41;17.30;90.00
31455;DHT22;18084;53.028;8.834;2023-05-07T13:52:20;17.50;99.90
31455;DHT22;18084;53.028;8.834;2023-05-07T13:54:48;18.10;2.00
31455;DHT22;18084;53.028;8.834;2023-05-07T13:57:37;17.50;1.00
31455;DHT22;18084;53.028;8.834;2023-05-07T14:00:18;17.40;99.90
31455;DHT22;18084;53.028;8.834;2023-05-07T14:02:43;17.90;99.90
31455;DHT22;18084;53.028;8.834;2023-05-07T14:05:09;18.00;99.90
31455;DHT22;18084;53.028;8.834;2023-05-07T14:07:41;17.40;99.90
31455;DHT22;18084;53.028;8.834;2023-05-07T14:13:00;17.30;99.90
31455;DHT22;18084;53.028;8.834;2023-05-07T14:15:25;16.10;55.40
31455;DHT22;18084;53.028;8.834;2023-05-07T14:17:51;19.80;42.50
31455;DHT22;18084;53.028;8.834;2023-05-07T14:20:16;16.50;99.90
31455;DHT22;18084;53.028;8.834;2023-05-07T14:22:42;17.20;1.00
31455;DHT22;18084;53.028;8.834;2023-05-07T14:25:08;17.20;1.00
31455;DHT22;18084;53.028;8.834;2023-05-07T14:27:34;17.10;1.00
31455;DHT22;18084;53.028;8.834;2023-05-07T14:30:00;17.40;99.90
31455;DHT22;18084;53.028;8.834;2023-05-07T14:32:26;17.30;99.90
31455;DHT22;18084;53.028;8.834;2023-05-07T14:34:51;17.30;99.90
31455;DHT22;18084;53.028;8.834;2023-05-07T14:37:16;17.30;24.70
31455;DHT22;18084;53.028;8.834;2023-05-07T14:39:44;17.30;99.90
31455;DHT22;18084;53.028;8.834;2023-05-07T14:42:10;17.20;99.90
31455;DHT22;18084;53.028;8.834;2023-05-07T14:44:36;17.30;99.90
31455;DHT22;18084;53.028;8.834;2023-05-07T14:47:02;17.20;99.90
31455;DHT22;18084;53.028;8.834;2023-05-07T14:49:27;16.90;1.00
31455;DHT22;18084;53.028;8.834;2023-05-07T14:51:53;17.20;99.90
31455;DHT22;18084;53.028;8.834;2023-05-07T14:54:19;17.40;94.80
31455;DHT22;18084;53.028;8.834;2023-05-07T14:56:44;17.30;1.00
31455;DHT22;18084;53.028;8.834;2023-05-07T14:59:10;17.30;57.80
31455;DHT22;18084;53.028;8.834;2023-05-07T15:01:36;17.40;91.70
31455;DHT22;18084;53.028;8.834;2023-05-07T15:04:03;17.40;90.00
31455;DHT22;18084;53.028;8.834;2023-05-07T15:06:29;17.70;99.90
31455;DHT22;18084;53.028;8.834;2023-05-07T15:08:55;17.00;34.90
31455;DHT22;18084;53.028;8.834;2023-05-07T15:11:20;16.90;1.00
31455;DHT22;18084;53.028;8.834;2023-05-07T15:13:46;16.90;99.90
31455;DHT22;18084;53.028;8.834;2023-05-07T15:16:11;16.60;1.00
31455;DHT22;18084;53.028;8.834;2023-05-07T15:18:36;16.70;99.90
31455;DHT22;18084;53.028;8.834;2023-05-07T15:21:02;16.80;1.00
31455;DHT22;18084;53.028;8.834;2023-05-07T15:23:28;16.50;99.90
31455;DHT22;18084;53.028;8.834;2023-05-07T15:25:53;16.50;1.00
31455;DHT22;18084;53.028;8.834;2023-05-07T15:28:19;16.50;99.90
31455;DHT22;18084;53.028;8.834;2023-05-07T15:30:44;16.80;1.00
31455;DHT22;18084;53.028;8.834;2023-05-07T15:33:10;17.00;99.90
31455;DHT22;18084;53.028;8.834;2023-05-07T15:35:36;17.00;99.90
31455;DHT22;18084;53.028;8.834;2023-05-07T15:38:01;17.10;1.00
31455;DHT22;18084;53.028;8.834;2023-05-07T15:40:28;17.30;1.00
31455;DHT22;18084;53.028;8.834;2023-05-07T15:42:54;17.30;29.20
31455;DHT22;18084;53.028;8.834;2023-05-07T15:45:19;17.40;99.90
31455;DHT22;18084;53.028;8.834;2023-05-07T15:47:45;17.30;99.90
31455;DHT22;18084;53.028;8.834;2023-05-07T15:50:11;17.20;99.90
31455;DHT22;18084;53.028;8.834;2023-05-07T15:52:36;17.30;99.90
31455;DHT22;18084;53.028;8.834;2023-05-07T15:55:03;17.40;99.90
31455;DHT22;18084;53.028;8.834;2023-05-07T15:57:30;17.40;99.90
31455;DHT22;18084;53.028;8.834;2023-05-07T15:59:56;17.40;99.90
31455;DHT22;18084;53.028;8.834;2023-05-07T16:02:22;17.50;1.00
31455;DHT22;18084;53.028;8.834;2023-05-07T16:04:47;17.20;99.90
31455;DHT22;18084;53.028;8.834;2023-05-07T16:07:13;17.00;1.00
31455;DHT22;18084;53.028;8.834;2023-05-07T16:09:39;16.70;80.80
31455;DHT22;18084;53.028;8.834;2023-05-07T16:12:05;16.60;99.90
31455;DHT22;18084;53.028;8.834;2023-05-07T16:14:30;16.80;99.90
31455;DHT22;18084;53.028;8.834;2023-05-07T16:16:56;16.70;99.90
31455;DHT22;18084;53.028;8.834;2023-05-07T16:19:24;16.60;1.00
31455;DHT22;18084;53.028;8.834;2023-05-07T16:21:50;16.80;89.40
31455;DHT22;18084;53.028;8.834;2023-05-07T16:24:16;16.40;1.00
31455;DHT22;18084;53.028;8.834;2023-05-07T16:26:41;16.60;99.90
31455;DHT22;18084;53.028;8.834;2023-05-07T16:29:06;16.40;1.00
31455;DHT22;18084;53.028;8.834;2023-05-07T16:31:32;16.40;1.00
31455;DHT22;18084;53.028;8.834;2023-05-07T16:33:58;16.30;99.90
31455;DHT22;18084;53.028;8.834;2023-05-07T16:36:26;16.30;31.40
31455;DHT22;18084;53.028;8.834;2023-05-07T16:38:53;16.50;99.90
31455;DHT22;18084;53.028;8.834;2023-05-07T16:41:18;16.00;99.90
31455;DHT22;18084;53.028;8.834;2023-05-07T16:43:43;15.90;1.00
31455;DHT22;18084;53.028;8.834;2023-05-07T16:46:09;15.60;33.40
31455;DHT22;18084;53.028;8.834;2023-05-07T16:48:34;15.60;99.90
31455;DHT22;18084;53.028;8.834;2023-05-07T16:51:00;15.50;99.90
31455;DHT22;18084;53.028;8.834;2023-05-07T16:53:25;15.60;99.90
31455;DHT22;18084;53.028;8.834;2023-05-07T16:55:51;16.00;99.90
31455;DHT22;18084;53.028;8.834;2023-05-07T16:58:20;15.40;94.80
31455;DHT22;18084;53.028;8.834;2023-05-07T17:00:47;15.40;99.90
31455;DHT22;18084;53.028;8.834;2023-05-07T17:03:13;15.30;1.00
31455;DHT22;18084;53.028;8.834;2023-05-07T17:05:38;15.20;23.70
31455;DHT22;18084;53.028;8.834;2023-05-07T17:08:04;15.30;99.90
31455;DHT22;18084;53.028;8.834;2023-05-07T17:10:29;15.40;1.00
31455;DHT22;18084;53.028;8.834;2023-05-07T17:12:55;15.10;29.70
31455;DHT22;18084;53.028;8.834;2023-05-07T17:15:20;15.40;1.00
31455;DHT22;18084;53.028;8.834;2023-05-07T17:17:46;15.50;1.00
31455;DHT22;18084;53.028;8.834;2023-05-07T17:20:11;15.60;99.90
31455;DHT22;18084;53.028;8.834;2023-05-07T17:22:37;15.60;99.90
31455;DHT22;18084;53.028;8.834;2023-05-07T17:25:02;15.60;99.90
31455;DHT22;18084;53.028;8.834;2023-05-07T17:27:29;15.50;99.90
31455;DHT22;18084;53.028;8.834;2023-05-07T17:29:55;17.40;1.00
31455;DHT22;18084;53.028;8.834;2023-05-07T17:32:21;15.60;1.00
31455;DHT22;18084;53.028;8.834;2023-05-07T17:34:46;15.60;1.00
31455;DHT22;18084;53.028;8.834;2023-05-07T17:37:12;15.50;1.00
31455;DHT22;18084;53.028;8.834;2023-05-07T17:39:38;16.30;96.70
31455;DHT22;18084;53.028;8.834;2023-05-07T17:42:03;15.50;99.90
31455;DHT22;18084;53.028;8.834;2023-05-07T17:44:29;17.20;99.90
31455;DHT22;18084;53.028;8.834;2023-05-07T17:46:54;15.30;99.90
31455;DHT22;18084;53.028;8.834;2023-05-07T17:49:23;15.20;99.90
31455;DHT22;18084;53.028;8.834;2023-05-07T17:52:08;15.50;99.90
31455;DHT22;18084;53.028;8.834;2023-05-07T17:54:33;14.20;99.90
31455;DHT22;18084;53.028;8.834;2023-05-07T17:57:02;15.10;99.90
31455;DHT22;18084;53.028;8.834;2023-05-07T17:59:28;15.10;99.90
31455;DHT22;18084;53.028;8.834;2023-05-07T18:01:53;15.00;99.90
31455;DHT22;18084;53.028;8.834;2023-05-07T18:04:19;15.00;99.90
31455;DHT22;18084;53.028;8.834;2023-05-07T18:06:50;14.90;99.90
31455;DHT22;18084;53.028;8.834;2023-05-07T18:09:16;14.90;99.90
31455;DHT22;18084;53.028;8.834;2023-05-07T18:11:41;14.90;99.90
31455;DHT22;18084;53.028;8.834;2023-05-07T18:14:07;14.40;99.90
31455;DHT22;18084;53.028;8.834;2023-05-07T18:16:33;12.90;99.90
31455;DHT22;18084;53.028;8.834;2023-05-07T18:19:02;17.20;99.90
31455;DHT22;18084;53.028;8.834;2023-05-07T18:21:27;14.60;1.00
31455;DHT22;18084;53.028;8.834;2023-05-07T18:23:53;16.50;99.90
31455;DHT22;18084;53.028;8.834;2023-05-07T18:26:18;14.50;99.90
31455;DHT22;18084;53.028;8.834;2023-05-07T18:28:44;14.30;99.90
31455;DHT22;18084;53.028;8.834;2023-05-07T18:31:13;14.50;1.00
31455;DHT22;18084;53.028;8.834;2023-05-07T18:33:39;14.30;1.00
31455;DHT22;18084;53.028;8.834;2023-05-07T18:36:05;13.90;1.00
31455;DHT22;18084;53.028;8.834;2023-05-07T18:38:31;14.10;1.00
31455;DHT22;18084;53.028;8.834;2023-05-07T18:41:03;13.80;1.00
31455;DHT22;18084;53.028;8.834;2023-05-07T18:43:29;14.00;1.00
31455;DHT22;18084;53.028;8.834;2023-05-07T18:45:55;15.40;1.00
31455;DHT22;18084;53.028;8.834;2023-05-07T18:48:21;13.90;1.00
31455;DHT22;18084;53.028;8.834;2023-05-07T18:50:46;13.80;1.00
31455;DHT22;18084;53.028;8.834;2023-05-07T18:53:12;13.70;1.00
31455;DHT22;18084;53.028;8.834;2023-05-07T18:55:37;13.60;1.00
31455;DHT22;18084;53.028;8.834;2023-05-07T18:58:03;13.60;1.00
31455;DHT22;18084;53.028;8.834;2023-05-07T19:00:29;13.50;1.00
31455;DHT22;18084;53.028;8.834;2023-05-07T19:02:55;14.10;1.00
31455;DHT22;18084;53.028;8.834;2023-05-07T19:05:21;13.30;1.00
31455;DHT22;18084;53.028;8.834;2023-05-07T19:07:46;13.30;1.00
31455;DHT22;18084;53.028;8.834;2023-05-07T19:10:13;13.20;1.00
31455;DHT22;18084;53.028;8.834;2023-05-07T19:12:39;12.70;1.00
31455;DHT22;18084;53.028;8.834;2023-05-07T19:15:05;13.00;1.00
31455;DHT22;18084;53.028;8.834;2023-05-07T19:17:31;13.10;1.00
31455;DHT22;18084;53.028;8.834;2023-05-07T19:19:56;12.80;1.00
31455;DHT22;18084;53.028;8.834;2023-05-07T19:22:25;13.00;1.00
31455;DHT22;18084;53.028;8.834;2023-05-07T19:24:52;12.90;1.00
31455;DHT22;18084;53.028;8.834;2023-05-07T19:27:18;12.90;1.00
31455;DHT22;18084;53.028;8.834;2023-05-07T19:29:43;12.80;1.00
31455;DHT22;18084;53.028;8.834;2023-05-07T19:32:09;12.70;1.00
31455;DHT22;18084;53.028;8.834;2023-05-07T19:34:35;12.90;1.00
31455;DHT22;18084;53.028;8.834;2023-05-07T19:37:00;12.70;1.00
31455;DHT22;18084;53.028;8.834;2023-05-07T19:39:26;12.50;3.00
31455;DHT22;18084;53.028;8.834;2023-05-07T19:41:52;12.60;1.00
31455;DHT22;18084;53.028;8.834;2023-05-07T19:44:18;12.30;1.00
31455;DHT22;18084;53.028;8.834;2023-05-07T19:46:43;12.60;1.50
31455;DHT22;18084;53.028;8.834;2023-05-07T19:49:10;12.50;5.30
31455;DHT22;18084;53.028;8.834;2023-05-07T19:51:39;12.50;4.50
31455;DHT22;18084;53.028;8.834;2023-05-07T19:54:05;14.50;10.20
31455;DHT22;18084;53.028;8.834;2023-05-07T19:56:32;12.50;9.00
31455;DHT22;18084;53.028;8.834;2023-05-07T19:59:01;12.40;10.40
31455;DHT22;18084;53.028;8.834;2023-05-07T20:01:34;12.30;12.20
31455;DHT22;18084;53.028;8.834;2023-05-07T20:04:03;12.40;14.70
31455;DHT22;18084;53.028;8.834;2023-05-07T20:09:52;12.20;20.60
31455;DHT22;18084;53.028;8.834;2023-05-07T20:12:26;12.20;31.60
31455;DHT22;18084;53.028;8.834;2023-05-07T20:14:52;12.10;35.30
31455;DHT22;18084;53.028;8.834;2023-05-07T20:17:18;11.30;45.20
31455;DHT22;18084;53.028;8.834;2023-05-07T20:19:45;11.80;50.70
31455;DHT22;18084;53.028;8.834;2023-05-07T20:22:17;11.80;57.40
31455;DHT22;18084;53.028;8.834;2023-05-07T20:24:42;11.80;57.90
31455;DHT22;18084;53.028;8.834;2023-05-07T20:27:08;11.70;54.70
31455;DHT22;18084;53.028;8.834;2023-05-07T20:29:33;11.70;57.60
31455;DHT22;18084;53.028;8.834;2023-05-07T20:32:01;11.60;59.30
31455;DHT22;18084;53.028;8.834;2023-05-07T20:34:26;11.60;56.60
31455;DHT22;18084;53.028;8.834;2023-05-07T20:36:52;11.60;55.80
31455;DHT22;18084;53.028;8.834;2023-05-07T20:39:20;11.50;52.20
31455;DHT22;18084;53.028;8.834;2023-05-07T20:41:46;11.60;42.60
31455;DHT22;18084;53.028;8.834;2023-05-07T20:44:12;11.50;35.00
31455;DHT22;18084;53.028;8.834;2023-05-07T20:46:37;11.50;34.30
31455;DHT22;18084;53.028;8.834;2023-05-07T20:49:03;11.50;33.10
31455;DHT22;18084;53.028;8.834;2023-05-07T20:51:30;11.40;32.30
31455;DHT22;18084;53.028;8.834;2023-05-07T20:53:55;11.40;30.20
31455;DHT22;18084;53.028;8.834;2023-05-07T20:56:21;11.40;31.00
31455;DHT22;18084;53.028;8.834;2023-05-07T20:58:56;11.30;35.60
31455;DHT22;18084;53.028;8.834;2023-05-07T21:01:22;11.30;35.00
31455;DHT22;18084;53.028;8.834;2023-05-07T21:03:47;11.30;38.30
31455;DHT22;18084;53.028;8.834;2023-05-07T21:06:14;11.30;35.90
31455;DHT22;18084;53.028;8.834;2023-05-07T21:08:39;11.20;39.70
31455;DHT22;18084;53.028;8.834;2023-05-07T21:11:05;11.20;46.60
31455;DHT22;18084;53.028;8.834;2023-05-07T21:13:30;11.10;47.30
31455;DHT22;18084;53.028;8.834;2023-05-07T21:15:56;11.10;54.40
31455;DHT22;18084;53.028;8.834;2023-05-07T21:18:21;11.10;53.90
